sensor_id;sensor_type;location;lat;lon;timestamp;P1;durP1;ratioP1;P2;durP2;ratioP2
40807;SDS011;26523;52.504;13.498;2023-03-11T00:01:59;19.08;;;7.00;;
40807;SDS011;26523;52.504;13.498;2023-03-11T00:04:24;12.68;;;5.30;;
40807;SDS011;26523;52.504;13.498;2023-03-11T00:06:50;13.55;;;6.03;;
40807;SDS011;26523;52.504;13.498;2023-03-11T00:09:16;11.60;;;5.20;;
40807;SDS011;26523;52.504;13.498;2023-03-11T00:11:41;13.15;;;5.30;;
40807;SDS011;26523;52.504;13.498;2023-03-11T00:14:07;12.73;;;6.47;;
40807;SDS011;26523;52.504;13.498;2023-03-11T00:16:32;13.73;;;5.50;;
40807;SDS011;26523;52.504;13.498;2023-03-11T00:18:58;19.98;;;6.40;;
40807;SDS011;26523;52.504;13.498;2023-03-11T00:21:24;11.70;;;5.47;;
40807;SDS011;26523;52.504;13.498;2023-03-11T00:23:50;16.08;;;4.93;;
40807;SDS011;26523;52.504;13.498;2023-03-11T00:26:15;15.82;;;6.10;;
40807;SDS011;26523;52.504;13.498;2023-03-11T00:28:41;14.25;;;6.30;;
40807;SDS011;26523;52.504;13.498;2023-03-11T00:31:06;12.68;;;5.93;;
40807;SDS011;26523;52.504;13.498;2023-03-11T00:33:32;16.67;;;5.80;;
40807;SDS011;26523;52.504;13.498;2023-03-11T00:35:58;14.07;;;5.03;;
40807;SDS011;26523;52.504;13.498;2023-03-11T00:38:23;16.25;;;5.35;;
40807;SDS011;26523;52.504;13.498;2023-03-11T00:40:49;12.00;;;4.68;;
40807;SDS011;26523;52.504;13.498;2023-03-11T00:43:15;12.50;;;5.88;;
40807;SDS011;26523;52.504;13.498;2023-03-11T00:45:41;10.98;;;4.50;;
40807;SDS011;26523;52.504;13.498;2023-03-11T00:48:07;18.45;;;5.47;;
40807;SDS011;26523;52.504;13.498;2023-03-11T00:50:33;10.10;;;4.95;;
40807;SDS011;26523;52.504;13.498;2023-03-11T00:53:00;8.82;;;4.72;;
40807;SDS011;26523;52.504;13.498;2023-03-11T00:55:27;9.82;;;3.63;;
40807;SDS011;26523;52.504;13.498;2023-03-11T00:57:55;13.00;;;4.68;;
40807;SDS011;26523;52.504;13.498;2023-03-11T01:00:24;9.32;;;4.05;;
40807;SDS011;26523;52.504;13.498;2023-03-11T01:02:51;9.10;;;3.70;;
40807;SDS011;26523;52.504;13.498;2023-03-11T01:05:22;11.68;;;4.25;;
40807;SDS011;26523;52.504;13.498;2023-03-11T01:07:49;10.02;;;4.15;;
40807;SDS011;26523;52.504;13.498;2023-03-11T01:10:15;10.95;;;4.22;;
40807;SDS011;26523;52.504;13.498;2023-03-11T01:12:41;9.43;;;4.20;;
40807;SDS011;26523;52.504;13.498;2023-03-11T01:15:08;13.75;;;5.93;;
40807;SDS011;26523;52.504;13.498;2023-03-11T01:17:38;10.02;;;4.32;;
40807;SDS011;26523;52.504;13.498;2023-03-11T01:20:07;9.75;;;4.85;;
40807;SDS011;26523;52.504;13.498;2023-03-11T01:22:34;8.18;;;4.30;;
40807;SDS011;26523;52.504;13.498;2023-03-11T01:25:00;9.88;;;4.13;;
40807;SDS011;26523;52.504;13.498;2023-03-11T01:27:26;11.82;;;5.05;;
40807;SDS011;26523;52.504;13.498;2023-03-11T01:29:52;11.68;;;5.43;;
40807;SDS011;26523;52.504;13.498;2023-03-11T01:32:18;11.93;;;6.25;;
40807;SDS011;26523;52.504;13.498;2023-03-11T01:34:43;12.95;;;6.50;;
40807;SDS011;26523;52.504;13.498;2023-03-11T01:37:09;14.25;;;5.95;;
40807;SDS011;26523;52.504;13.498;2023-03-11T01:39:35;13.07;;;5.72;;
40807;SDS011;26523;52.504;13.498;2023-03-11T01:42:00;11.73;;;4.57;;
40807;SDS011;26523;52.504;13.498;2023-03-11T01:44:26;12.07;;;5.72;;
40807;SDS011;26523;52.504;13.498;2023-03-11T01:49:17;15.13;;;6.05;;
40807;SDS011;26523;52.504;13.498;2023-03-11T01:51:45;7.72;;;3.55;;
40807;SDS011;26523;52.504;13.498;2023-03-11T01:54:37;8.27;;;4.80;;
40807;SDS011;26523;52.504;13.498;2023-03-11T01:57:05;10.50;;;4.43;;
40807;SDS011;26523;52.504;13.498;2023-03-11T01:59:39;7.90;;;3.45;;
40807;SDS011;26523;52.504;13.498;2023-03-11T02:02:19;6.88;;;4.15;;
40807;SDS011;26523;52.504;13.498;2023-03-11T02:05:01;7.63;;;3.33;;
40807;SDS011;26523;52.504;13.498;2023-03-11T02:07:28;6.15;;;3.00;;
40807;SDS011;26523;52.504;13.498;2023-03-11T02:09:54;6.75;;;2.97;;
40807;SDS011;26523;52.504;13.498;2023-03-11T02:12:20;3.55;;;1.88;;
40807;SDS011;26523;52.504;13.498;2023-03-11T02:14:46;5.78;;;2.15;;
40807;SDS011;26523;52.504;13.498;2023-03-11T02:17:15;3.58;;;1.88;;
40807;SDS011;26523;52.504;13.498;2023-03-11T02:22:22;3.10;;;1.58;;
40807;SDS011;26523;52.504;13.498;2023-03-11T02:25:02;2.80;;;1.25;;
40807;SDS011;26523;52.504;13.498;2023-03-11T02:27:35;2.53;;;1.50;;
40807;SDS011;26523;52.504;13.498;2023-03-11T02:30:05;1.45;;;0.85;;
40807;SDS011;26523;52.504;13.498;2023-03-11T02:32:32;1.95;;;1.10;;
40807;SDS011;26523;52.504;13.498;2023-03-11T02:34:58;1.15;;;0.75;;
40807;SDS011;26523;52.504;13.498;2023-03-11T02:37:24;2.67;;;1.20;;
40807;SDS011;26523;52.504;13.498;2023-03-11T02:39:50;0.88;;;0.50;;
40807;SDS011;26523;52.504;13.498;2023-03-11T02:44:55;1.35;;;0.90;;
40807;SDS011;26523;52.504;13.498;2023-03-11T02:47:27;1.23;;;0.77;;
40807;SDS011;26523;52.504;13.498;2023-03-11T02:49:53;0.95;;;0.88;;
40807;SDS011;26523;52.504;13.498;2023-03-11T02:52:20;1.25;;;0.80;;
40807;SDS011;26523;52.504;13.498;2023-03-11T02:54:47;2.70;;;0.90;;
40807;SDS011;26523;52.504;13.498;2023-03-11T02:57:12;2.08;;;1.00;;
40807;SDS011;26523;52.504;13.498;2023-03-11T02:59:38;2.65;;;1.10;;
40807;SDS011;26523;52.504;13.498;2023-03-11T03:02:04;2.00;;;1.00;;
40807;SDS011;26523;52.504;13.498;2023-03-11T03:04:30;2.10;;;1.00;;
40807;SDS011;26523;52.504;13.498;2023-03-11T03:06:55;1.55;;;1.08;;
40807;SDS011;26523;52.504;13.498;2023-03-11T03:09:21;1.08;;;0.70;;
40807;SDS011;26523;52.504;13.498;2023-03-11T03:11:47;1.40;;;1.17;;
40807;SDS011;26523;52.504;13.498;2023-03-11T03:14:12;1.42;;;0.82;;
40807;SDS011;26523;52.504;13.498;2023-03-11T03:16:38;2.35;;;1.30;;
40807;SDS011;26523;52.504;13.498;2023-03-11T03:19:03;1.88;;;1.13;;
40807;SDS011;26523;52.504;13.498;2023-03-11T03:21:29;1.80;;;1.05;;
40807;SDS011;26523;52.504;13.498;2023-03-11T03:23:55;1.80;;;1.20;;
40807;SDS011;26523;52.504;13.498;2023-03-11T03:26:20;1.55;;;0.88;;
40807;SDS011;26523;52.504;13.498;2023-03-11T03:28:46;2.75;;;1.65;;
40807;SDS011;26523;52.504;13.498;2023-03-11T03:31:11;2.40;;;1.23;;
40807;SDS011;26523;52.504;13.498;2023-03-11T03:33:37;3.72;;;1.30;;
40807;SDS011;26523;52.504;13.498;2023-03-11T03:36:07;1.80;;;0.95;;
40807;SDS011;26523;52.504;13.498;2023-03-11T03:38:35;2.00;;;1.20;;
40807;SDS011;26523;52.504;13.498;2023-03-11T03:41:00;2.58;;;1.33;;
40807;SDS011;26523;52.504;13.498;2023-03-11T03:43:26;1.83;;;0.95;;
40807;SDS011;26523;52.504;13.498;2023-03-11T03:45:58;3.25;;;1.50;;
40807;SDS011;26523;52.504;13.498;2023-03-11T03:48:25;0.98;;;0.90;;
40807;SDS011;26523;52.504;13.498;2023-03-11T03:50:51;2.50;;;1.08;;
40807;SDS011;26523;52.504;13.498;2023-03-11T03:53:17;2.20;;;1.20;;
40807;SDS011;26523;52.504;13.498;2023-03-11T03:55:42;1.95;;;1.20;;
40807;SDS011;26523;52.504;13.498;2023-03-11T03:58:08;2.85;;;1.40;;
40807;SDS011;26523;52.504;13.498;2023-03-11T04:00:34;4.38;;;1.42;;
40807;SDS011;26523;52.504;13.498;2023-03-11T04:03:00;2.63;;;1.90;;
40807;SDS011;26523;52.504;13.498;2023-03-11T04:05:26;2.38;;;1.67;;
40807;SDS011;26523;52.504;13.498;2023-03-11T04:07:52;3.05;;;1.67;;
40807;SDS011;26523;52.504;13.498;2023-03-11T04:10:18;2.85;;;1.35;;
40807;SDS011;26523;52.504;13.498;2023-03-11T04:12:44;6.18;;;2.22;;
40807;SDS011;26523;52.504;13.498;2023-03-11T04:15:09;4.45;;;1.80;;
40807;SDS011;26523;52.504;13.498;2023-03-11T04:17:36;3.65;;;1.70;;
40807;SDS011;26523;52.504;13.498;2023-03-11T04:20:03;5.03;;;2.05;;
40807;SDS011;26523;52.504;13.498;2023-03-11T04:22:31;3.90;;;2.00;;
40807;SDS011;26523;52.504;13.498;2023-03-11T04:24:57;4.70;;;2.10;;
40807;SDS011;26523;52.504;13.498;2023-03-11T04:27:23;3.78;;;1.77;;
40807;SDS011;26523;52.504;13.498;2023-03-11T04:29:49;5.43;;;1.98;;
40807;SDS011;26523;52.504;13.498;2023-03-11T04:32:14;3.28;;;1.60;;
40807;SDS011;26523;52.504;13.498;2023-03-11T04:34:40;6.15;;;2.10;;
40807;SDS011;26523;52.504;13.498;2023-03-11T04:37:06;5.43;;;2.33;;
40807;SDS011;26523;52.504;13.498;2023-03-11T04:39:32;4.65;;;2.30;;
40807;SDS011;26523;52.504;13.498;2023-03-11T04:41:57;4.28;;;2.30;;
40807;SDS011;26523;52.504;13.498;2023-03-11T04:44:23;5.57;;;1.98;;
40807;SDS011;26523;52.504;13.498;2023-03-11T04:46:49;2.38;;;1.60;;
40807;SDS011;26523;52.504;13.498;2023-03-11T04:49:15;4.72;;;2.05;;
40807;SDS011;26523;52.504;13.498;2023-03-11T04:51:40;3.70;;;1.67;;
40807;SDS011;26523;52.504;13.498;2023-03-11T04:54:06;5.60;;;1.70;;
40807;SDS011;26523;52.504;13.498;2023-03-11T04:56:32;4.05;;;2.03;;
40807;SDS011;26523;52.504;13.498;2023-03-11T04:58:58;3.58;;;1.42;;
40807;SDS011;26523;52.504;13.498;2023-03-11T05:01:24;3.78;;;1.48;;
40807;SDS011;26523;52.504;13.498;2023-03-11T05:03:49;3.97;;;1.95;;
40807;SDS011;26523;52.504;13.498;2023-03-11T05:06:15;3.40;;;1.52;;
40807;SDS011;26523;52.504;13.498;2023-03-11T05:08:40;3.83;;;1.65;;
40807;SDS011;26523;52.504;13.498;2023-03-11T05:11:06;3.20;;;1.85;;
40807;SDS011;26523;52.504;13.498;2023-03-11T05:13:32;3.85;;;1.65;;
40807;SDS011;26523;52.504;13.498;2023-03-11T05:15:58;1.58;;;1.02;;
40807;SDS011;26523;52.504;13.498;2023-03-11T05:18:24;3.65;;;1.10;;
40807;SDS011;26523;52.504;13.498;2023-03-11T05:20:50;3.17;;;1.55;;
40807;SDS011;26523;52.504;13.498;2023-03-11T05:23:15;2.88;;;1.58;;
40807;SDS011;26523;52.504;13.498;2023-03-11T05:25:41;2.13;;;1.17;;
40807;SDS011;26523;52.504;13.498;2023-03-11T05:28:06;4.68;;;2.05;;
40807;SDS011;26523;52.504;13.498;2023-03-11T05:30:32;3.70;;;1.55;;
40807;SDS011;26523;52.504;13.498;2023-03-11T05:32:58;3.13;;;1.45;;
40807;SDS011;26523;52.504;13.498;2023-03-11T05:35:24;2.40;;;1.17;;
40807;SDS011;26523;52.504;13.498;2023-03-11T05:37:49;2.35;;;1.13;;
40807;SDS011;26523;52.504;13.498;2023-03-11T05:40:16;5.72;;;2.47;;
40807;SDS011;26523;52.504;13.498;2023-03-11T05:42:42;4.35;;;1.73;;
40807;SDS011;26523;52.504;13.498;2023-03-11T05:45:08;2.08;;;1.25;;
40807;SDS011;26523;52.504;13.498;2023-03-11T05:47:34;3.90;;;1.90;;
40807;SDS011;26523;52.504;13.498;2023-03-11T05:50:00;2.58;;;1.83;;
40807;SDS011;26523;52.504;13.498;2023-03-11T05:52:25;2.30;;;1.58;;
40807;SDS011;26523;52.504;13.498;2023-03-11T05:54:51;4.05;;;1.63;;
40807;SDS011;26523;52.504;13.498;2023-03-11T05:57:17;4.22;;;1.80;;
40807;SDS011;26523;52.504;13.498;2023-03-11T05:59:43;3.22;;;1.50;;
40807;SDS011;26523;52.504;13.498;2023-03-11T06:02:09;3.83;;;1.65;;
40807;SDS011;26523;52.504;13.498;2023-03-11T06:04:35;2.70;;;1.65;;
40807;SDS011;26523;52.504;13.498;2023-03-11T06:07:00;3.80;;;2.05;;
40807;SDS011;26523;52.504;13.498;2023-03-11T06:09:26;3.60;;;1.73;;
40807;SDS011;26523;52.504;13.498;2023-03-11T06:11:52;7.55;;;2.08;;
40807;SDS011;26523;52.504;13.498;2023-03-11T06:14:17;3.38;;;1.65;;
40807;SDS011;26523;52.504;13.498;2023-03-11T06:16:43;4.80;;;2.00;;
40807;SDS011;26523;52.504;13.498;2023-03-11T06:19:09;2.97;;;1.65;;
40807;SDS011;26523;52.504;13.498;2023-03-11T06:21:36;4.57;;;1.65;;
40807;SDS011;26523;52.504;13.498;2023-03-11T06:24:02;2.65;;;1.65;;
40807;SDS011;26523;52.504;13.498;2023-03-11T06:26:27;8.65;;;2.30;;
40807;SDS011;26523;52.504;13.498;2023-03-11T06:28:53;3.45;;;1.60;;
40807;SDS011;26523;52.504;13.498;2023-03-11T06:31:22;3.13;;;1.52;;
40807;SDS011;26523;52.504;13.498;2023-03-11T06:33:52;4.75;;;1.58;;
40807;SDS011;26523;52.504;13.498;2023-03-11T06:36:22;5.80;;;1.60;;
40807;SDS011;26523;52.504;13.498;2023-03-11T06:38:50;2.45;;;1.10;;
40807;SDS011;26523;52.504;13.498;2023-03-11T06:41:17;2.65;;;1.20;;
40807;SDS011;26523;52.504;13.498;2023-03-11T06:43:42;3.53;;;1.85;;
40807;SDS011;26523;52.504;13.498;2023-03-11T06:46:14;5.30;;;2.45;;
40807;SDS011;26523;52.504;13.498;2023-03-11T06:48:44;2.65;;;1.45;;
40807;SDS011;26523;52.504;13.498;2023-03-11T06:51:11;4.18;;;2.25;;
40807;SDS011;26523;52.504;13.498;2023-03-11T06:53:37;3.35;;;1.75;;
40807;SDS011;26523;52.504;13.498;2023-03-11T06:56:05;5.55;;;2.67;;
40807;SDS011;26523;52.504;13.498;2023-03-11T06:58:32;7.65;;;2.47;;
40807;SDS011;26523;52.504;13.498;2023-03-11T07:01:00;4.00;;;2.53;;
40807;SDS011;26523;52.504;13.498;2023-03-11T07:03:37;7.47;;;3.13;;
40807;SDS011;26523;52.504;13.498;2023-03-11T07:06:03;6.88;;;1.65;;
40807;SDS011;26523;52.504;13.498;2023-03-11T07:08:29;3.80;;;2.25;;
40807;SDS011;26523;52.504;13.498;2023-03-11T07:11:02;4.38;;;2.15;;
40807;SDS011;26523;52.504;13.498;2023-03-11T07:13:32;7.05;;;2.72;;
40807;SDS011;26523;52.504;13.498;2023-03-11T07:16:08;5.00;;;2.88;;
40807;SDS011;26523;52.504;13.498;2023-03-11T07:18:42;5.28;;;2.33;;
40807;SDS011;26523;52.504;13.498;2023-03-11T07:21:10;7.57;;;2.30;;
40807;SDS011;26523;52.504;13.498;2023-03-11T07:23:39;4.63;;;2.65;;
40807;SDS011;26523;52.504;13.498;2023-03-11T07:26:07;4.55;;;2.30;;
40807;SDS011;26523;52.504;13.498;2023-03-11T07:28:34;4.50;;;2.08;;
40807;SDS011;26523;52.504;13.498;2023-03-11T07:31:04;6.97;;;2.30;;
40807;SDS011;26523;52.504;13.498;2023-03-11T07:33:35;4.28;;;2.30;;
40807;SDS011;26523;52.504;13.498;2023-03-11T07:36:06;3.33;;;1.95;;
40807;SDS011;26523;52.504;13.498;2023-03-11T07:38:36;5.82;;;1.83;;
40807;SDS011;26523;52.504;13.498;2023-03-11T07:41:02;4.40;;;1.95;;
40807;SDS011;26523;52.504;13.498;2023-03-11T07:43:29;6.63;;;2.03;;
40807;SDS011;26523;52.504;13.498;2023-03-11T07:46:02;3.10;;;1.83;;
40807;SDS011;26523;52.504;13.498;2023-03-11T07:48:29;6.82;;;2.67;;
40807;SDS011;26523;52.504;13.498;2023-03-11T07:51:09;3.65;;;2.20;;
40807;SDS011;26523;52.504;13.498;2023-03-11T07:53:37;4.15;;;1.92;;
40807;SDS011;26523;52.504;13.498;2023-03-11T07:56:04;6.35;;;2.03;;
40807;SDS011;26523;52.504;13.498;2023-03-11T07:58:31;4.43;;;1.63;;
40807;SDS011;26523;52.504;13.498;2023-03-11T08:01:04;6.20;;;2.03;;
40807;SDS011;26523;52.504;13.498;2023-03-11T08:05:58;4.88;;;2.67;;
40807;SDS011;26523;52.504;13.498;2023-03-11T08:08:23;4.95;;;2.38;;
40807;SDS011;26523;52.504;13.498;2023-03-11T08:10:49;6.72;;;1.98;;
40807;SDS011;26523;52.504;13.498;2023-03-11T08:13:15;6.55;;;2.25;;
40807;SDS011;26523;52.504;13.498;2023-03-11T08:15:40;5.57;;;2.03;;
40807;SDS011;26523;52.504;13.498;2023-03-11T08:18:06;4.15;;;2.00;;
40807;SDS011;26523;52.504;13.498;2023-03-11T08:20:32;5.53;;;2.13;;
40807;SDS011;26523;52.504;13.498;2023-03-11T08:22:58;3.63;;;1.83;;
40807;SDS011;26523;52.504;13.498;2023-03-11T08:25:23;4.38;;;1.85;;
40807;SDS011;26523;52.504;13.498;2023-03-11T08:27:49;6.15;;;2.67;;
40807;SDS011;26523;52.504;13.498;2023-03-11T08:30:15;5.00;;;2.17;;
40807;SDS011;26523;52.504;13.498;2023-03-11T08:32:41;4.82;;;2.55;;
40807;SDS011;26523;52.504;13.498;2023-03-11T08:35:07;6.47;;;2.47;;
40807;SDS011;26523;52.504;13.498;2023-03-11T08:37:33;5.38;;;2.25;;
40807;SDS011;26523;52.504;13.498;2023-03-11T08:39:59;4.18;;;2.33;;
40807;SDS011;26523;52.504;13.498;2023-03-11T08:42:24;5.68;;;2.20;;
40807;SDS011;26523;52.504;13.498;2023-03-11T08:44:50;9.40;;;2.33;;
40807;SDS011;26523;52.504;13.498;2023-03-11T08:47:15;4.95;;;2.10;;
40807;SDS011;26523;52.504;13.498;2023-03-11T08:49:41;6.47;;;2.10;;
40807;SDS011;26523;52.504;13.498;2023-03-11T08:52:07;6.45;;;2.45;;
40807;SDS011;26523;52.504;13.498;2023-03-11T08:54:33;4.45;;;2.22;;
40807;SDS011;26523;52.504;13.498;2023-03-11T08:56:58;5.05;;;2.10;;
40807;SDS011;26523;52.504;13.498;2023-03-11T08:59:27;4.10;;;1.73;;
40807;SDS011;26523;52.504;13.498;2023-03-11T09:01:53;3.97;;;2.17;;
40807;SDS011;26523;52.504;13.498;2023-03-11T09:04:19;4.50;;;2.20;;
40807;SDS011;26523;52.504;13.498;2023-03-11T09:06:45;3.90;;;1.92;;
40807;SDS011;26523;52.504;13.498;2023-03-11T09:09:13;3.92;;;2.03;;
40807;SDS011;26523;52.504;13.498;2023-03-11T09:11:44;7.65;;;2.22;;
40807;SDS011;26523;52.504;13.498;2023-03-11T09:14:11;5.03;;;2.25;;
40807;SDS011;26523;52.504;13.498;2023-03-11T09:16:36;8.43;;;2.20;;
40807;SDS011;26523;52.504;13.498;2023-03-11T09:19:02;3.45;;;2.20;;
40807;SDS011;26523;52.504;13.498;2023-03-11T09:21:31;7.05;;;2.25;;
40807;SDS011;26523;52.504;13.498;2023-03-11T09:23:58;3.95;;;2.10;;
40807;SDS011;26523;52.504;13.498;2023-03-11T09:26:24;4.60;;;2.15;;
40807;SDS011;26523;52.504;13.498;2023-03-11T09:28:50;5.38;;;2.20;;
40807;SDS011;26523;52.504;13.498;2023-03-11T09:31:16;4.25;;;2.28;;
40807;SDS011;26523;52.504;13.498;2023-03-11T09:33:43;5.15;;;2.20;;
40807;SDS011;26523;52.504;13.498;2023-03-11T09:36:11;2.88;;;1.50;;
40807;SDS011;26523;52.504;13.498;2023-03-11T09:38:41;4.97;;;2.28;;
40807;SDS011;26523;52.504;13.498;2023-03-11T09:41:12;4.40;;;1.48;;
40807;SDS011;26523;52.504;13.498;2023-03-11T09:52:09;4.55;;;2.00;;
40807;SDS011;26523;52.504;13.498;2023-03-11T09:54:56;2.80;;;1.55;;
40807;SDS011;26523;52.504;13.498;2023-03-11T09:57:26;10.55;;;4.85;;
40807;SDS011;26523;52.504;13.498;2023-03-11T09:59:56;10.00;;;3.50;;
40807;SDS011;26523;52.504;13.498;2023-03-11T10:02:22;5.30;;;2.22;;
40807;SDS011;26523;52.504;13.498;2023-03-11T10:07:26;4.10;;;1.67;;
40807;SDS011;26523;52.504;13.498;2023-03-11T10:09:57;8.70;;;2.70;;
40807;SDS011;26523;52.504;13.498;2023-03-11T10:17:59;5.30;;;2.70;;
40807;SDS011;26523;52.504;13.498;2023-03-11T10:20:41;5.75;;;2.22;;
40807;SDS011;26523;52.504;13.498;2023-03-11T10:25:48;6.18;;;2.20;;
40807;SDS011;26523;52.504;13.498;2023-03-11T10:28:35;3.90;;;2.10;;
40807;SDS011;26523;52.504;13.498;2023-03-11T10:31:07;5.20;;;2.25;;
40807;SDS011;26523;52.504;13.498;2023-03-11T10:33:50;5.00;;;2.35;;
40807;SDS011;26523;52.504;13.498;2023-03-11T10:36:22;4.90;;;2.70;;
40807;SDS011;26523;52.504;13.498;2023-03-11T10:38:50;6.00;;;2.30;;
40807;SDS011;26523;52.504;13.498;2023-03-11T10:41:23;5.18;;;2.05;;
40807;SDS011;26523;52.504;13.498;2023-03-11T10:44:05;7.82;;;2.88;;
40807;SDS011;26523;52.504;13.498;2023-03-11T10:46:38;6.00;;;2.40;;
40807;SDS011;26523;52.504;13.498;2023-03-11T10:49:14;8.43;;;2.38;;
40807;SDS011;26523;52.504;13.498;2023-03-11T10:51:44;5.82;;;3.28;;
40807;SDS011;26523;52.504;13.498;2023-03-11T10:56:55;4.72;;;2.20;;
40807;SDS011;26523;52.504;13.498;2023-03-11T10:59:30;3.67;;;1.85;;
40807;SDS011;26523;52.504;13.498;2023-03-11T11:07:36;9.27;;;3.00;;
40807;SDS011;26523;52.504;13.498;2023-03-11T11:12:51;12.95;;;2.55;;
40807;SDS011;26523;52.504;13.498;2023-03-11T11:15:22;4.25;;;2.50;;
40807;SDS011;26523;52.504;13.498;2023-03-11T11:20:57;5.15;;;2.17;;
40807;SDS011;26523;52.504;13.498;2023-03-11T11:26:19;5.88;;;2.58;;
40807;SDS011;26523;52.504;13.498;2023-03-11T11:29:03;6.40;;;3.20;;
40807;SDS011;26523;52.504;13.498;2023-03-11T11:31:31;3.85;;;2.38;;
40807;SDS011;26523;52.504;13.498;2023-03-11T11:33:57;5.50;;;2.85;;
40807;SDS011;26523;52.504;13.498;2023-03-11T11:36:30;10.73;;;2.80;;
40807;SDS011;26523;52.504;13.498;2023-03-11T11:39:00;10.40;;;2.78;;
40807;SDS011;26523;52.504;13.498;2023-03-11T11:41:30;6.50;;;3.25;;
40807;SDS011;26523;52.504;13.498;2023-03-11T11:44:00;5.00;;;3.08;;
40807;SDS011;26523;52.504;13.498;2023-03-11T11:46:32;5.65;;;2.58;;
40807;SDS011;26523;52.504;13.498;2023-03-11T11:49:07;7.80;;;3.50;;
40807;SDS011;26523;52.504;13.498;2023-03-11T11:57:22;6.50;;;2.95;;
40807;SDS011;26523;52.504;13.498;2023-03-11T11:59:48;5.47;;;3.58;;
40807;SDS011;26523;52.504;13.498;2023-03-11T12:18:49;7.13;;;2.88;;
40807;SDS011;26523;52.504;13.498;2023-03-11T12:26:26;4.03;;;2.53;;
40807;SDS011;26523;52.504;13.498;2023-03-11T12:32:02;8.15;;;3.10;;
40807;SDS011;26523;52.504;13.498;2023-03-11T12:34:29;6.28;;;3.28;;
40807;SDS011;26523;52.504;13.498;2023-03-11T12:36:58;8.27;;;3.25;;
40807;SDS011;26523;52.504;13.498;2023-03-11T12:39:34;6.32;;;3.42;;
40807;SDS011;26523;52.504;13.498;2023-03-11T12:44:49;6.40;;;3.25;;
40807;SDS011;26523;52.504;13.498;2023-03-11T12:47:16;6.85;;;3.40;;
40807;SDS011;26523;52.504;13.498;2023-03-11T12:49:45;7.85;;;3.60;;
40807;SDS011;26523;52.504;13.498;2023-03-11T12:52:17;7.57;;;3.53;;
40807;SDS011;26523;52.504;13.498;2023-03-11T12:54:46;8.98;;;4.10;;
40807;SDS011;26523;52.504;13.498;2023-03-11T13:05:29;5.35;;;2.92;;
40807;SDS011;26523;52.504;13.498;2023-03-11T13:10:53;7.15;;;3.50;;
40807;SDS011;26523;52.504;13.498;2023-03-11T13:18:42;6.88;;;3.33;;
40807;SDS011;26523;52.504;13.498;2023-03-11T13:34:52;7.15;;;3.25;;
40807;SDS011;26523;52.504;13.498;2023-03-11T13:42:49;6.38;;;2.97;;
40807;SDS011;26523;52.504;13.498;2023-03-11T13:45:26;6.60;;;2.90;;
40807;SDS011;26523;52.504;13.498;2023-03-11T13:48:03;5.57;;;2.30;;
40807;SDS011;26523;52.504;13.498;2023-03-11T13:50:40;7.32;;;2.42;;
40807;SDS011;26523;52.504;13.498;2023-03-11T13:56:26;7.32;;;2.80;;
40807;SDS011;26523;52.504;13.498;2023-03-11T13:59:22;6.82;;;3.22;;
40807;SDS011;26523;52.504;13.498;2023-03-11T14:01:55;6.30;;;2.70;;
40807;SDS011;26523;52.504;13.498;2023-03-11T14:04:26;8.57;;;2.80;;
40807;SDS011;26523;52.504;13.498;2023-03-11T14:07:10;7.40;;;3.08;;
40807;SDS011;26523;52.504;13.498;2023-03-11T14:09:37;11.93;;;2.78;;
40807;SDS011;26523;52.504;13.498;2023-03-11T14:12:03;5.28;;;2.95;;
40807;SDS011;26523;52.504;13.498;2023-03-11T14:15:05;5.47;;;2.55;;
40807;SDS011;26523;52.504;13.498;2023-03-11T14:17:26;5.05;;;2.45;;
40807;SDS011;26523;52.504;13.498;2023-03-11T14:22:50;5.28;;;2.95;;
40807;SDS011;26523;52.504;13.498;2023-03-11T14:25:22;7.30;;;2.83;;
40807;SDS011;26523;52.504;13.498;2023-03-11T14:27:58;4.40;;;1.92;;
40807;SDS011;26523;52.504;13.498;2023-03-11T14:30:27;6.03;;;2.50;;
40807;SDS011;26523;52.504;13.498;2023-03-11T14:32:58;5.40;;;2.90;;
40807;SDS011;26523;52.504;13.498;2023-03-11T14:35:30;5.35;;;2.50;;
40807;SDS011;26523;52.504;13.498;2023-03-11T14:37:57;3.97;;;1.90;;
40807;SDS011;26523;52.504;13.498;2023-03-11T14:40:26;4.95;;;2.58;;
40807;SDS011;26523;52.504;13.498;2023-03-11T14:42:55;4.55;;;2.47;;
40807;SDS011;26523;52.504;13.498;2023-03-11T14:45:33;6.03;;;2.17;;
40807;SDS011;26523;52.504;13.498;2023-03-11T14:50:30;4.85;;;2.00;;
40807;SDS011;26523;52.504;13.498;2023-03-11T14:55:31;4.68;;;2.42;;
40807;SDS011;26523;52.504;13.498;2023-03-11T14:58:12;9.40;;;2.40;;
40807;SDS011;26523;52.504;13.498;2023-03-11T15:00:48;8.90;;;2.58;;
40807;SDS011;26523;52.504;13.498;2023-03-11T15:03:22;4.43;;;2.28;;
40807;SDS011;26523;52.504;13.498;2023-03-11T15:06:00;5.72;;;2.88;;
40807;SDS011;26523;52.504;13.498;2023-03-11T15:08:30;4.60;;;2.15;;
40807;SDS011;26523;52.504;13.498;2023-03-11T15:13:30;4.13;;;2.03;;
40807;SDS011;26523;52.504;13.498;2023-03-11T15:16:03;7.85;;;2.60;;
40807;SDS011;26523;52.504;13.498;2023-03-11T15:18:31;9.35;;;2.35;;
40807;SDS011;26523;52.504;13.498;2023-03-11T15:23:30;4.00;;;2.00;;
40807;SDS011;26523;52.504;13.498;2023-03-11T15:25:58;3.00;;;1.67;;
40807;SDS011;26523;52.504;13.498;2023-03-11T15:28:25;3.70;;;1.83;;
40807;SDS011;26523;52.504;13.498;2023-03-11T15:33:43;3.47;;;1.60;;
40807;SDS011;26523;52.504;13.498;2023-03-11T15:36:30;3.03;;;1.55;;
40807;SDS011;26523;52.504;13.498;2023-03-11T15:41:42;10.80;;;2.45;;
40807;SDS011;26523;52.504;13.498;2023-03-11T15:44:18;9.30;;;3.08;;
40807;SDS011;26523;52.504;13.498;2023-03-11T15:46:46;3.95;;;1.33;;
40807;SDS011;26523;52.504;13.498;2023-03-11T15:49:11;4.55;;;1.90;;
40807;SDS011;26523;52.504;13.498;2023-03-11T15:51:38;5.53;;;1.80;;
40807;SDS011;26523;52.504;13.498;2023-03-11T15:54:03;4.75;;;1.83;;
40807;SDS011;26523;52.504;13.498;2023-03-11T15:56:29;2.92;;;1.42;;
40807;SDS011;26523;52.504;13.498;2023-03-11T15:58:57;3.65;;;2.15;;
40807;SDS011;26523;52.504;13.498;2023-03-11T16:01:23;2.63;;;1.35;;
40807;SDS011;26523;52.504;13.498;2023-03-11T16:03:52;3.50;;;1.55;;
40807;SDS011;26523;52.504;13.498;2023-03-11T16:06:19;3.90;;;2.00;;
40807;SDS011;26523;52.504;13.498;2023-03-11T16:08:46;7.03;;;1.52;;
40807;SDS011;26523;52.504;13.498;2023-03-11T16:11:12;2.45;;;1.33;;
40807;SDS011;26523;52.504;13.498;2023-03-11T16:13:38;2.80;;;1.25;;
40807;SDS011;26523;52.504;13.498;2023-03-11T16:16:05;3.90;;;1.55;;
40807;SDS011;26523;52.504;13.498;2023-03-11T16:18:34;3.92;;;1.67;;
40807;SDS011;26523;52.504;13.498;2023-03-11T16:21:00;3.97;;;1.38;;
40807;SDS011;26523;52.504;13.498;2023-03-11T16:23:32;3.60;;;1.58;;
40807;SDS011;26523;52.504;13.498;2023-03-11T16:26:01;3.90;;;1.70;;
40807;SDS011;26523;52.504;13.498;2023-03-11T16:28:28;12.15;;;2.33;;
40807;SDS011;26523;52.504;13.498;2023-03-11T16:30:54;6.95;;;1.65;;
40807;SDS011;26523;52.504;13.498;2023-03-11T16:33:20;1.90;;;1.25;;
40807;SDS011;26523;52.504;13.498;2023-03-11T16:35:46;3.15;;;1.58;;
40807;SDS011;26523;52.504;13.498;2023-03-11T16:38:12;4.28;;;1.17;;
40807;SDS011;26523;52.504;13.498;2023-03-11T16:40:38;2.92;;;1.55;;
40807;SDS011;26523;52.504;13.498;2023-03-11T16:43:05;4.43;;;1.92;;
40807;SDS011;26523;52.504;13.498;2023-03-11T16:45:35;2.53;;;1.10;;
40807;SDS011;26523;52.504;13.498;2023-03-11T16:48:01;5.75;;;2.10;;
40807;SDS011;26523;52.504;13.498;2023-03-11T16:50:27;5.07;;;2.05;;
40807;SDS011;26523;52.504;13.498;2023-03-11T16:52:54;4.07;;;1.90;;
40807;SDS011;26523;52.504;13.498;2023-03-11T16:55:20;3.03;;;1.45;;
40807;SDS011;26523;52.504;13.498;2023-03-11T16:57:46;4.40;;;1.27;;